createdAt,value
2018-07-25T00:01:45.549Z,98558.95
2018-07-25T00:04:14.026Z,98556.89
2018-07-25T00:06:41.953Z,98546.69
2018-07-25T00:09:10.984Z,98550.34
2018-07-25T00:11:39.472Z,98547.21
2018-07-25T00:14:07.505Z,98549.10
2018-07-25T00:16:35.905Z,98548.06
2018-07-25T00:19:04.351Z,98548.00
2018-07-25T00:21:32.435Z,98545.63
2018-07-25T00:24:00.937Z,98543.13
2018-07-25T00:26:29.421Z,98542.30
2018-07-25T00:28:57.606Z,98539.47
2018-07-25T00:31:26.073Z,98547.08
2018-07-25T00:33:54.457Z,98543.12
2018-07-25T00:36:22.394Z,98543.91
2018-07-25T00:38:50.689Z,98542.69
2018-07-25T00:41:19.069Z,98540.17
2018-07-25T00:43:47.248Z,98539.52
2018-07-25T00:46:15.738Z,98536.70
2018-07-25T00:48:44.101Z,98541.09
2018-07-25T00:51:12.285Z,98529.22
2018-07-25T00:53:40.562Z,98525.53
2018-07-25T00:56:08.734Z,98526.17
2018-07-25T00:58:37.115Z,98518.27
2018-07-25T01:01:05.488Z,98522.59
2018-07-25T01:03:33.758Z,98519.33
2018-07-25T01:06:02.237Z,98520.88
2018-07-25T01:08:30.605Z,98522.00
2018-07-25T01:10:58.931Z,98523.05
2018-07-25T01:13:27.365Z,98522.50
2018-07-25T01:15:55.741Z,98514.86
2018-07-25T01:18:23.923Z,98508.25
2018-07-25T01:20:52.197Z,98504.69
2018-07-25T01:23:20.540Z,98504.51
2018-07-25T01:25:48.858Z,98507.19
2018-07-25T01:28:17.121Z,98506.83
2018-07-25T01:30:45.297Z,98504.98
2018-07-25T01:33:13.511Z,98505.80
2018-07-25T01:35:41.760Z,98506.36
2018-07-25T01:38:09.829Z,98501.97
2018-07-25T01:40:38.297Z,98505.13
2018-07-25T01:43:06.768Z,98507.55
2018-07-25T01:45:35.145Z,98507.67
2018-07-25T01:48:03.466Z,98510.02
2018-07-25T01:50:31.696Z,98507.19
2018-07-25T01:53:00.023Z,98515.86
2018-07-25T01:55:28.357Z,98517.08
2018-07-25T01:57:56.535Z,98511.50
2018-07-25T02:00:24.842Z,98509.00
2018-07-25T02:02:53.299Z,98514.74
2018-07-25T02:05:21.674Z,98501.45
2018-07-25T02:07:49.979Z,98507.48
2018-07-25T02:10:18.421Z,98508.38
2018-07-25T02:12:46.814Z,98510.15
2018-07-25T02:15:15.285Z,98512.75
2018-07-25T02:17:43.857Z,98507.13
2018-07-25T02:20:12.046Z,98518.55
2018-07-25T02:22:40.525Z,98515.70
2018-07-25T02:25:08.800Z,98510.86
2018-07-25T02:27:37.073Z,98506.59
2018-07-25T02:30:05.573Z,98512.36
2018-07-25T02:32:34.025Z,98511.48
2018-07-25T02:35:02.301Z,98506.86
2018-07-25T02:37:30.576Z,98507.64
2018-07-25T02:39:58.961Z,98507.94
2018-07-25T02:42:27.239Z,98509.56
2018-07-25T02:44:55.758Z,98508.06
2018-07-25T02:47:23.982Z,98521.21
2018-07-25T02:49:52.264Z,98521.56
2018-07-25T02:52:20.450Z,98515.92
2018-07-25T02:54:48.823Z,98528.28
2018-07-25T02:57:17.090Z,98526.98
2018-07-25T02:59:50.136Z,98526.39
2018-07-25T03:02:18.563Z,98522.66
2018-07-25T03:04:46.844Z,98527.94
2018-07-25T03:07:15.309Z,98527.20
2018-07-25T03:09:43.539Z,98530.87
2018-07-25T03:12:11.961Z,98536.17
2018-07-25T03:14:40.342Z,98534.39
2018-07-25T03:17:09.652Z,98538.06
2018-07-25T03:19:37.965Z,98538.34
2018-07-25T03:22:06.489Z,98549.23
2018-07-25T03:24:34.389Z,98556.13
2018-07-25T03:27:03.049Z,98556.68
2018-07-25T03:29:31.516Z,98555.30
2018-07-25T03:31:59.942Z,98560.70
2018-07-25T03:34:28.295Z,98563.13
2018-07-25T03:36:56.444Z,98560.96
2018-07-25T03:39:24.769Z,98567.16
2018-07-25T03:41:53.006Z,98572.36
2018-07-25T03:44:21.398Z,98572.23
2018-07-25T03:46:49.813Z,98573.86
2018-07-25T03:49:18.137Z,98580.88
2018-07-25T03:51:46.622Z,98590.69
2018-07-25T03:54:14.827Z,98586.38
2018-07-25T03:56:43.169Z,98583.25
2018-07-25T03:59:11.345Z,98588.60
2018-07-25T04:01:39.773Z,98588.95
2018-07-25T04:04:08.006Z,98596.25
2018-07-25T04:06:36.316Z,98593.67
2018-07-25T04:09:07.289Z,98600.02
2018-07-25T04:11:35.199Z,98597.59
2018-07-25T04:14:03.565Z,98597.64
2018-07-25T04:16:31.941Z,98604.52
2018-07-25T04:19:00.075Z,98605.06
2018-07-25T04:21:28.507Z,98604.59
2018-07-25T04:23:56.907Z,98615.80
2018-07-25T04:26:25.242Z,98606.80
2018-07-25T04:28:53.535Z,98609.73
2018-07-25T04:31:21.846Z,98608.03
2018-07-25T04:33:50.078Z,98612.59
2018-07-25T04:36:18.449Z,98612.34
2018-07-25T04:38:46.734Z,98613.39
2018-07-25T04:41:15.098Z,98611.69
2018-07-25T04:43:43.512Z,98611.00
2018-07-25T04:46:11.766Z,98609.59
2018-07-25T04:48:40.132Z,98608.84
2018-07-25T04:51:08.558Z,98613.03
2018-07-25T04:53:36.897Z,98607.26
2018-07-25T04:56:05.294Z,98605.16
2018-07-25T04:58:33.421Z,98606.06
2018-07-25T05:01:01.818Z,98610.08
2018-07-25T05:03:30.081Z,98608.55
2018-07-25T05:05:58.284Z,98606.50
2018-07-25T05:08:26.668Z,98608.53
2018-07-25T05:10:54.960Z,98606.56
2018-07-25T05:13:23.396Z,98612.56
2018-07-25T05:15:51.717Z,98609.47
2018-07-25T05:18:20.157Z,98617.11
2018-07-25T05:20:48.453Z,98617.76
2018-07-25T05:23:16.769Z,98618.62
2018-07-25T05:25:45.177Z,98622.16
2018-07-25T05:28:13.667Z,98620.84
2018-07-25T05:30:41.837Z,98626.03
2018-07-25T05:33:10.255Z,98625.80
2018-07-25T05:35:38.589Z,98625.33
2018-07-25T05:38:07.065Z,98622.70
2018-07-25T05:40:35.491Z,98623.11
2018-07-25T05:43:04.033Z,98629.43
2018-07-25T05:45:32.009Z,98634.37
2018-07-25T05:48:00.431Z,98632.92
2018-07-25T05:50:28.853Z,98647.22
2018-07-25T05:52:56.863Z,98645.53
2018-07-25T05:55:25.311Z,98643.13
2018-07-25T05:57:53.698Z,98643.52
2018-07-25T06:00:22.074Z,98642.94
2018-07-25T06:02:50.530Z,98646.86
2018-07-25T06:05:18.829Z,98644.48
2018-07-25T06:07:47.110Z,98643.62
2018-07-25T06:10:15.569Z,98646.47
2018-07-25T06:12:44.017Z,98641.38
2018-07-25T06:15:12.473Z,98643.92
2018-07-25T06:17:40.921Z,98640.67
2018-07-25T06:20:10.282Z,98647.08
2018-07-25T06:22:39.049Z,98644.77
2018-07-25T06:25:07.182Z,98643.84
2018-07-25T06:27:35.663Z,98651.98
2018-07-25T06:30:04.308Z,98646.16
2018-07-25T06:32:32.630Z,98651.70
2018-07-25T06:35:00.892Z,98644.55
2018-07-25T06:37:29.174Z,98643.26
2018-07-25T06:39:57.318Z,98645.17
2018-07-25T06:42:25.751Z,98651.73
2018-07-25T06:44:54.095Z,98654.88
2018-07-25T06:47:22.478Z,98647.98
2018-07-25T06:49:50.806Z,98652.52
2018-07-25T06:52:19.135Z,98656.93
2018-07-25T06:54:47.403Z,98653.17
2018-07-25T06:57:15.833Z,98653.47
2018-07-25T06:59:44.265Z,98655.39
2018-07-25T07:02:12.533Z,98658.68
2018-07-25T07:04:40.922Z,98662.81
2018-07-25T07:07:09.195Z,98661.20
2018-07-25T07:09:37.565Z,98661.42
2018-07-25T07:12:05.902Z,98665.95
2018-07-25T07:14:34.278Z,98670.25
2018-07-25T07:17:02.706Z,98676.02
2018-07-25T07:19:30.880Z,98669.55
2018-07-25T07:21:59.258Z,98668.86
2018-07-25T07:24:27.633Z,98678.89
2018-07-25T07:26:55.697Z,98680.57
2018-07-25T07:29:24.007Z,98671.09
2018-07-25T07:31:52.359Z,98685.00
2018-07-25T07:34:20.635Z,98673.33
2018-07-25T07:36:48.942Z,98676.59
2018-07-25T07:39:17.186Z,98676.85
2018-07-25T07:41:45.448Z,98680.00
2018-07-25T07:44:13.757Z,98680.82
2018-07-25T07:46:42.001Z,98686.61
2018-07-25T07:49:10.390Z,98682.44
2018-07-25T07:51:38.673Z,98683.39
2018-07-25T07:54:07.094Z,98676.28
2018-07-25T07:56:35.300Z,98682.80
2018-07-25T07:59:03.823Z,98683.01
2018-07-25T08:01:32.051Z,98683.90
2018-07-25T08:04:00.441Z,98686.34
2018-07-25T08:06:28.753Z,98685.45
2018-07-25T08:08:57.197Z,98694.91
2018-07-25T08:11:25.486Z,98695.63
2018-07-25T08:13:53.902Z,98694.27
2018-07-25T08:16:22.138Z,98698.73
2018-07-25T08:18:50.306Z,98702.28
2018-07-25T08:21:18.206Z,98699.84
2018-07-25T08:23:46.469Z,98690.36
2018-07-25T08:26:14.715Z,98688.50
2018-07-25T08:28:43.130Z,98691.71
2018-07-25T08:31:11.258Z,98694.45
2018-07-25T08:33:39.567Z,98691.58
2018-07-25T08:36:07.925Z,98688.91
2018-07-25T08:38:41.735Z,98687.84
2018-07-25T08:41:10.047Z,98686.81
2018-07-25T08:43:40.204Z,98685.44
2018-07-25T08:46:09.664Z,98687.37
2018-07-25T08:48:38.214Z,98692.12
2018-07-25T08:51:06.482Z,98687.20
2018-07-25T08:53:35.200Z,98685.21
2018-07-25T08:56:03.537Z,98682.11
2018-07-25T08:58:32.020Z,98681.23
2018-07-25T09:01:00.852Z,98679.25
2018-07-25T09:03:29.094Z,98680.26
2018-07-25T09:05:57.361Z,98675.63
2018-07-25T09:08:25.573Z,98673.57
2018-07-25T09:10:53.815Z,98663.17
2018-07-25T09:13:22.191Z,98673.13
2018-07-25T09:15:50.626Z,98669.80
2018-07-25T09:18:18.954Z,98672.30
2018-07-25T09:20:47.107Z,98667.44
2018-07-25T09:23:15.202Z,98669.88
2018-07-25T09:25:43.362Z,98663.59
2018-07-25T09:28:11.755Z,98667.27
2018-07-25T09:30:40.110Z,98669.98
2018-07-25T09:33:08.383Z,98660.13
2018-07-25T09:35:36.675Z,98657.17
2018-07-25T09:38:04.968Z,98652.20
2018-07-25T09:40:33.321Z,98650.25
2018-07-25T09:43:01.636Z,98641.84
2018-07-25T09:45:29.971Z,98640.14
2018-07-25T09:47:58.254Z,98637.44
2018-07-25T09:50:26.634Z,98637.12
2018-07-25T09:52:55.100Z,98638.80
2018-07-25T09:55:23.389Z,98641.82
2018-07-25T09:57:51.653Z,98635.18
2018-07-25T10:00:25.500Z,98643.09
2018-07-25T10:02:53.876Z,98632.55
2018-07-25T10:05:22.132Z,98626.09
2018-07-25T10:07:51.374Z,98629.06
2018-07-25T10:10:19.589Z,98618.58
2018-07-25T10:12:48.010Z,98624.62
2018-07-25T10:15:16.470Z,98622.36
2018-07-25T10:17:44.534Z,98630.63
2018-07-25T10:20:12.807Z,98623.72
2018-07-25T10:22:41.111Z,98645.49
2018-07-25T10:25:08.982Z,98636.75
2018-07-25T10:27:37.220Z,98643.63
2018-07-25T10:30:05.625Z,98644.11
2018-07-25T10:32:33.778Z,98643.28
2018-07-25T10:35:02.144Z,98642.66
2018-07-25T10:37:30.757Z,98638.10
2018-07-25T10:39:58.903Z,98650.59
2018-07-25T10:42:27.203Z,98657.59
2018-07-25T10:44:55.455Z,98670.02
2018-07-25T10:47:23.755Z,98673.88
2018-07-25T10:49:52.106Z,98668.43
2018-07-25T10:52:20.475Z,98668.43
2018-07-25T10:54:48.894Z,98665.52
2018-07-25T10:57:16.909Z,98664.87
2018-07-25T10:59:45.301Z,98661.38
2018-07-25T11:02:13.706Z,98655.75
2018-07-25T11:04:41.658Z,98648.80
2018-07-25T11:07:09.935Z,98641.66
2018-07-25T11:09:38.278Z,98640.31
2018-07-25T11:12:06.483Z,98638.83
2018-07-25T11:14:34.791Z,98640.17
2018-07-25T11:17:03.035Z,98631.13
2018-07-25T11:19:31.401Z,98633.88
2018-07-25T11:21:59.586Z,98629.23
2018-07-25T11:24:28.057Z,98628.31
2018-07-25T11:26:56.482Z,98628.52
2018-07-25T11:29:24.709Z,98635.13
2018-07-25T11:31:52.997Z,98635.41
2018-07-25T11:34:21.193Z,98641.76
2018-07-25T11:36:49.433Z,98636.44
2018-07-25T11:39:17.701Z,98639.57
2018-07-25T11:41:46.225Z,98645.23
2018-07-25T11:44:14.053Z,98644.08
2018-07-25T11:46:42.338Z,98648.57
2018-07-25T11:49:10.238Z,98650.72
2018-07-25T11:51:38.684Z,98641.16
2018-07-25T11:54:06.947Z,98644.02
2018-07-25T11:56:35.442Z,98643.98
2018-07-25T11:59:04.001Z,98640.97
2018-07-25T12:01:32.406Z,98638.98
2018-07-25T12:04:00.774Z,98638.16
2018-07-25T12:06:29.096Z,98636.11
2018-07-25T12:08:57.336Z,98639.17
2018-07-25T12:11:25.596Z,98629.85
2018-07-25T12:13:54.077Z,98634.66
2018-07-25T12:16:22.453Z,98627.59
2018-07-25T12:18:50.991Z,98633.12
2018-07-25T12:21:19.220Z,98644.52
2018-07-25T12:23:47.481Z,98643.07
2018-07-25T12:28:44.141Z,98652.69
2018-07-25T12:31:12.517Z,98662.06
2018-07-25T12:33:40.802Z,98661.65
2018-07-25T12:36:09.521Z,98660.85
2018-07-25T12:38:37.860Z,98659.92
2018-07-25T12:41:06.139Z,98655.48
2018-07-25T12:43:34.409Z,98654.14
2018-07-25T12:46:02.337Z,98648.33
2018-07-25T12:48:30.719Z,98635.19
2018-07-25T12:50:59.029Z,98634.89
2018-07-25T12:53:27.440Z,98630.61
2018-07-25T12:55:55.691Z,98626.41
2018-07-25T12:58:24.061Z,98622.28
2018-07-25T13:00:52.471Z,98632.16
2018-07-25T13:03:20.711Z,98629.11
2018-07-25T13:05:48.894Z,98630.22
2018-07-25T13:08:17.194Z,98633.28
2018-07-25T13:10:45.538Z,98629.95
2018-07-25T13:13:13.923Z,98628.68
2018-07-25T13:15:42.328Z,98616.08
2018-07-25T13:18:10.669Z,98613.69
2018-07-25T13:20:39.055Z,98615.31
2018-07-25T13:23:07.566Z,98609.44
2018-07-25T13:25:35.807Z,98604.86
2018-07-25T13:28:04.081Z,98611.33
2018-07-25T13:30:32.698Z,98616.54
2018-07-25T13:33:00.937Z,98623.48
2018-07-25T13:35:29.317Z,98618.31
2018-07-25T13:37:57.642Z,98621.77
2018-07-25T13:40:25.497Z,98629.73
2018-07-25T13:42:53.987Z,98630.95
2018-07-25T13:45:22.156Z,98628.11
2018-07-25T13:47:50.291Z,98635.47
2018-07-25T13:50:18.722Z,98634.59
2018-07-25T13:52:47.063Z,98624.99
2018-07-25T13:55:17.773Z,98620.49
2018-07-25T13:57:46.158Z,98623.48
2018-07-25T14:00:14.580Z,98615.48
2018-07-25T14:02:42.700Z,98617.09
2018-07-25T14:05:12.881Z,98618.90
2018-07-25T14:07:41.138Z,98623.94
2018-07-25T14:10:09.337Z,98617.58
2018-07-25T14:12:37.741Z,98618.21
2018-07-25T14:15:06.310Z,98625.24
2018-07-25T14:17:34.614Z,98620.73
2018-07-25T14:20:03.087Z,98621.20
2018-07-25T14:22:31.325Z,98618.21
2018-07-25T14:24:59.648Z,98617.38
2018-07-25T14:27:28.013Z,98610.62
2018-07-25T14:29:56.303Z,98612.16
2018-07-25T14:32:24.717Z,98616.70
2018-07-25T14:34:53.134Z,98611.33
2018-07-25T14:37:21.330Z,98609.80
2018-07-25T14:39:49.667Z,98605.24
2018-07-25T14:42:17.878Z,98620.64
2018-07-25T14:44:46.190Z,98630.63
2018-07-25T14:47:14.687Z,98636.81
2018-07-25T14:49:42.710Z,98642.98
2018-07-25T14:52:10.943Z,98636.13
2018-07-25T14:54:39.354Z,98644.91
2018-07-25T14:57:07.545Z,98639.50
2018-07-25T14:59:36.531Z,98633.11
2018-07-25T15:02:05.105Z,98625.55
2018-07-25T15:04:33.317Z,98623.06
2018-07-25T15:07:01.551Z,98616.00
2018-07-25T15:09:29.835Z,98617.73
2018-07-25T15:11:58.395Z,98617.81
2018-07-25T15:14:26.579Z,98618.57
2018-07-25T15:16:54.970Z,98621.59
2018-07-25T15:19:23.269Z,98622.35
2018-07-25T15:21:51.613Z,98623.41
2018-07-25T15:24:19.889Z,98620.92
2018-07-25T15:26:48.160Z,98622.14
2018-07-25T15:29:16.260Z,98623.36
2018-07-25T15:31:44.504Z,98620.09
2018-07-25T15:34:12.799Z,98615.16
2018-07-25T15:36:47.966Z,98620.72
2018-07-25T15:39:18.430Z,98622.06
2018-07-25T15:41:47.720Z,98614.20
2018-07-25T15:44:16.434Z,98609.78
2018-07-25T15:46:44.922Z,98616.13
2018-07-25T15:49:13.189Z,98620.50
2018-07-25T15:51:41.166Z,98622.53
2018-07-25T15:54:09.529Z,98623.06
2018-07-25T15:56:38.465Z,98630.34
2018-07-25T15:59:06.954Z,98632.70
2018-07-25T16:01:35.516Z,98632.48
2018-07-25T16:04:04.004Z,98634.46
2018-07-25T16:06:32.345Z,98629.00
2018-07-25T16:09:00.729Z,98634.66
2018-07-25T16:11:29.141Z,98631.38
2018-07-25T16:13:57.478Z,98632.34
2018-07-25T16:16:25.848Z,98632.03
2018-07-25T16:18:54.372Z,98637.92
2018-07-25T16:21:22.396Z,98636.56
2018-07-25T16:23:50.794Z,98633.74
2018-07-25T16:26:19.038Z,98635.09
2018-07-25T16:28:47.332Z,98641.61
2018-07-25T16:31:15.217Z,98646.44
2018-07-25T16:33:43.411Z,98638.91
2018-07-25T16:36:11.649Z,98650.27
2018-07-25T16:38:39.933Z,98652.38
2018-07-25T16:41:08.442Z,98654.70
2018-07-25T16:43:36.888Z,98662.42
2018-07-25T16:46:05.365Z,98674.37
2018-07-25T16:48:33.678Z,98670.83
2018-07-25T16:51:01.953Z,98681.14
2018-07-25T16:53:30.203Z,98681.14
2018-07-25T16:55:58.495Z,98684.70
2018-07-25T16:58:26.741Z,98687.75
2018-07-25T17:00:55.234Z,98685.60
2018-07-25T17:03:23.602Z,98692.41
2018-07-25T17:05:51.876Z,98689.22
2018-07-25T17:08:20.192Z,98698.14
2018-07-25T17:10:48.537Z,98701.08
2018-07-25T17:13:16.806Z,98700.75
2018-07-25T17:15:45.116Z,98697.55
2018-07-25T17:18:14.519Z,98697.36
2018-07-25T17:20:42.664Z,98697.98
2018-07-25T17:23:11.171Z,98697.98
2018-07-25T17:25:39.514Z,98702.14
2018-07-25T17:28:07.786Z,98706.25
2018-07-25T17:30:36.161Z,98702.70
2018-07-25T17:33:04.438Z,98706.39
2018-07-25T17:35:32.812Z,98707.55
2018-07-25T17:38:01.336Z,98704.13
2018-07-25T17:40:29.589Z,98700.74
2018-07-25T17:42:57.954Z,98699.59
2018-07-25T17:45:26.270Z,98701.30
2018-07-25T17:47:54.135Z,98707.45
2018-07-25T17:50:22.379Z,98705.75
2018-07-25T17:52:50.750Z,98705.13
2018-07-25T17:55:19.021Z,98706.16
2018-07-25T17:57:47.300Z,98713.61
2018-07-25T18:00:15.784Z,98716.92
2018-07-25T18:02:44.149Z,98722.15
2018-07-25T18:05:12.533Z,98728.47
2018-07-25T18:07:40.857Z,98735.15
2018-07-25T18:10:09.393Z,98736.55
2018-07-25T18:12:37.769Z,98741.72
2018-07-25T18:15:07.199Z,98747.45
2018-07-25T18:17:35.653Z,98749.48
2018-07-25T18:20:04.302Z,98753.71
2018-07-25T18:22:32.717Z,98754.59
2018-07-25T18:25:01.085Z,98759.72
2018-07-25T18:27:29.579Z,98757.09
2018-07-25T18:29:57.850Z,98755.55
2018-07-25T18:32:26.246Z,98760.08
2018-07-25T18:34:54.339Z,98761.11
2018-07-25T18:37:22.583Z,98763.14
2018-07-25T18:39:50.945Z,98770.56
2018-07-25T18:42:19.262Z,98769.66
2018-07-25T18:44:47.600Z,98771.73
2018-07-25T18:47:15.983Z,98780.02
2018-07-25T18:49:44.299Z,98776.00
2018-07-25T18:52:12.633Z,98783.84
2018-07-25T18:54:41.018Z,98785.45
2018-07-25T18:57:09.451Z,98781.53
2018-07-25T18:59:38.390Z,98781.87
2018-07-25T19:02:06.761Z,98782.42
2018-07-25T19:04:34.974Z,98787.29
2018-07-25T19:07:03.217Z,98781.23
2018-07-25T19:09:31.484Z,98784.88
2018-07-25T19:11:59.902Z,98794.25
2018-07-25T19:14:33.418Z,98786.91
2018-07-25T19:17:01.773Z,98796.77
2018-07-25T19:19:30.005Z,98795.08
2018-07-25T19:21:58.289Z,98793.23
2018-07-25T19:24:26.573Z,98796.92
2018-07-25T19:26:54.829Z,98799.67
2018-07-25T19:29:23.117Z,98804.31
2018-07-25T19:31:51.398Z,98804.31
2018-07-25T19:34:19.666Z,98800.94
2018-07-25T19:36:47.946Z,98808.11
2018-07-25T19:39:16.322Z,98812.05
2018-07-25T19:41:44.527Z,98814.16
2018-07-25T19:44:12.782Z,98810.13
2018-07-25T19:46:41.050Z,98817.14
2018-07-25T19:49:09.457Z,98810.81
2018-07-25T19:51:37.497Z,98801.27
2018-07-25T19:54:05.764Z,98806.10
2018-07-25T19:56:34.078Z,98806.80
2018-07-25T19:59:02.194Z,98804.84
2018-07-25T20:01:30.500Z,98802.96
2018-07-25T20:03:58.850Z,98801.31
2018-07-25T20:06:27.146Z,98799.48
2018-07-25T20:08:55.475Z,98802.05
2018-07-25T20:11:23.777Z,98808.61
2018-07-25T20:13:57.359Z,98803.09
2018-07-25T20:16:25.606Z,98810.33
2018-07-25T20:18:53.949Z,98814.36
2018-07-25T20:21:22.226Z,98813.05
2018-07-25T20:23:50.552Z,98807.69
2018-07-25T20:26:18.773Z,98802.63
2018-07-25T20:28:47.049Z,98805.23
2018-07-25T20:31:15.439Z,98809.41
2018-07-25T20:33:43.713Z,98812.41
2018-07-25T20:36:12.015Z,98813.94
2018-07-25T20:38:40.263Z,98808.53
2018-07-25T20:41:08.633Z,98811.06
2018-07-25T20:43:36.905Z,98820.48
2018-07-25T20:46:04.994Z,98828.97
2018-07-25T20:48:33.381Z,98829.75
2018-07-25T20:51:01.639Z,98832.40
2018-07-25T20:53:29.819Z,98833.77
2018-07-25T20:55:58.089Z,98832.89
2018-07-25T20:58:26.575Z,98840.75
2018-07-25T21:00:55.097Z,98842.94
2018-07-25T21:03:23.319Z,98835.69
2018-07-25T21:05:51.490Z,98840.19
2018-07-25T21:08:19.906Z,98833.48
2018-07-25T21:10:48.138Z,98833.67
2018-07-25T21:13:16.418Z,98832.67
2018-07-25T21:15:44.700Z,98830.33
2018-07-25T21:18:12.979Z,98836.34
2018-07-25T21:20:41.357Z,98830.83
2018-07-25T21:23:09.557Z,98822.25
2018-07-25T21:25:37.797Z,98813.88
2018-07-25T21:28:06.278Z,98815.06
2018-07-25T21:30:34.690Z,98818.92
2018-07-25T21:33:02.533Z,98816.08
2018-07-25T21:35:30.810Z,98818.27
2018-07-25T21:37:59.069Z,98811.25
2018-07-25T21:40:27.241Z,98810.75
2018-07-25T21:42:55.418Z,98810.91
2018-07-25T21:45:23.689Z,98809.91
2018-07-25T21:47:51.977Z,98804.55
2018-07-25T21:50:20.350Z,98804.73
2018-07-25T21:52:48.505Z,98807.91
2018-07-25T21:55:16.903Z,98812.92
2018-07-25T21:57:45.076Z,98815.61
2018-07-25T22:00:14.833Z,98819.95
2018-07-25T22:02:44.225Z,98818.42
2018-07-25T22:05:12.921Z,98828.64
2018-07-25T22:07:41.307Z,98829.64
2018-07-25T22:10:09.825Z,98835.55
2018-07-25T22:12:38.750Z,98829.69
2018-07-25T22:15:07.761Z,98833.40
2018-07-25T22:17:36.082Z,98834.05
2018-07-25T22:20:04.876Z,98836.95
2018-07-25T22:22:33.053Z,98838.68
2018-07-25T22:25:01.326Z,98841.02
2018-07-25T22:27:29.398Z,98845.02
2018-07-25T22:29:57.629Z,98846.03
2018-07-25T22:32:25.836Z,98854.22
2018-07-25T22:34:54.013Z,98853.17
2018-07-25T22:37:22.390Z,98851.55
2018-07-25T22:39:50.675Z,98854.24
2018-07-25T22:42:18.506Z,98860.93
2018-07-25T22:44:46.714Z,98856.91
2018-07-25T22:47:14.977Z,98855.19
2018-07-25T22:49:43.143Z,98861.25
2018-07-25T22:52:11.438Z,98854.91
2018-07-25T22:54:39.758Z,98851.56
2018-07-25T22:57:07.748Z,98849.39
2018-07-25T22:59:35.954Z,98845.70
2018-07-25T23:02:04.325Z,98840.83
2018-07-25T23:04:32.599Z,98840.97
2018-07-25T23:07:00.872Z,98840.50
2018-07-25T23:09:29.149Z,98837.66
2018-07-25T23:11:57.334Z,98844.05
2018-07-25T23:14:25.606Z,98837.50
2018-07-25T23:16:53.872Z,98839.02
2018-07-25T23:19:22.146Z,98842.70
2018-07-25T23:21:50.532Z,98832.16
2018-07-25T23:24:18.702Z,98839.88
2018-07-25T23:26:46.884Z,98839.53
2018-07-25T23:29:14.717Z,98840.39
2018-07-25T23:31:43.062Z,98842.39
2018-07-25T23:34:11.293Z,98841.91
2018-07-25T23:36:39.237Z,98845.91
2018-07-25T23:39:08.660Z,98846.42
2018-07-25T23:41:37.038Z,98852.11
2018-07-25T23:44:04.985Z,98851.11
2018-07-25T23:46:33.188Z,98850.59
2018-07-25T23:49:01.452Z,98850.58
2018-07-25T23:51:29.841Z,98848.44
2018-07-25T23:54:01.609Z,98855.77
2018-07-25T23:56:29.941Z,98857.80
2018-07-25T23:58:58.204Z,98861.14
